Time;durP1;ratioP1;P1;durP2;ratioP2;P2;SDS_P1;SDS_P2;PMS_P1;PMS_P2;Temp;Humidity;BMP_temperature;BMP_pressure;BME280_temperature;BME280_humidity;BME280_pressure;Samples;Min_cycle;Max_cycle;Signal;HPM_P1;HPM_P2
2023/10/15 00:00:55;;;;;;;7.38;2.47;;;10.70;99.90;;;;;;4156444;28;20034;-69
2023/10/15 00:02:55;;;;;;;3.83;1.95;;;10.70;99.90;;;;;;4071965;28;20400;-69
2023/10/15 00:04:56;;;;;;;4.90;2.25;;;10.70;99.90;;;;;;4174507;28;20087;-69
2023/10/15 00:06:57;;;;;;;8.63;2.50;;;10.70;99.90;;;;;;4181960;28;20071;-69
2023/10/15 00:08:59;;;;;;;4.57;2.00;;;10.70;99.90;;;;;;4182570;28;20025;-69
2023/10/15 00:11:00;;;;;;;;;;;10.70;99.90;;;;;;4186953;28;20037;-69
2023/10/15 00:13:02;;;;;;;5.13;1.80;;;10.60;99.90;;;;;;4177701;28;19928;-69
2023/10/15 00:15:03;;;;;;;6.95;2.40;;;10.60;99.90;;;;;;4179932;28;20036;-70
2023/10/15 00:17:05;;;;;;;9.48;2.40;;;10.60;99.90;;;;;;4181702;28;20029;-69
2023/10/15 00:19:12;;;;;;;6.53;2.10;;;10.60;99.90;;;;;;4184554;28;20079;-69
2023/10/15 00:21:13;;;;;;;4.30;2.03;;;10.60;99.90;;;;;;4166909;28;20041;-69
2023/10/15 00:23:14;;;;;;;5.97;2.15;;;10.50;99.90;;;;;;4168466;28;20029;-69
2023/10/15 00:25:16;;;;;;;6.47;2.17;;;10.60;99.90;;;;;;4185417;28;20048;-69
2023/10/15 00:27:17;;;;;;;5.30;2.13;;;10.50;99.90;;;;;;4183753;28;20048;-69
2023/10/15 00:29:18;;;;;;;6.95;2.33;;;10.50;99.90;;;;;;4178841;28;20128;-69
2023/10/15 00:31:18;;;;;;;6.25;2.42;;;10.40;99.90;;;;;;4186749;28;20044;-69
2023/10/15 00:33:19;;;;;;;5.50;2.35;;;10.50;99.90;;;;;;4182652;28;20484;-69
2023/10/15 00:35:20;;;;;;;6.47;2.17;;;10.40;99.90;;;;;;4179824;28;20058;-69
2023/10/15 00:37:22;;;;;;;7.65;2.25;;;10.40;99.90;;;;;;4184687;28;20736;-68
2023/10/15 00:39:23;;;;;;;5.80;2.00;;;10.40;99.90;;;;;;4170312;28;20072;-69
2023/10/15 00:41:24;;;;;;;8.88;2.22;;;10.40;99.90;;;;;;4181494;28;20104;-69
2023/10/15 00:43:24;;;;;;;4.55;1.98;;;10.40;99.90;;;;;;4179486;28;20029;-69
2023/10/15 00:45:25;;;;;;;10.48;2.60;;;10.40;99.90;;;;;;4177267;28;20033;-69
2023/10/15 00:47:26;;;;;;;2.50;1.85;;;10.40;99.90;;;;;;4184824;28;20619;-69
2023/10/15 00:49:27;;;;;;;5.93;1.80;;;10.40;99.90;;;;;;4178790;28;20112;-69
2023/10/15 00:51:27;;;;;;;7.50;2.17;;;10.40;99.90;;;;;;4162852;28;20061;-69
2023/10/15 00:53:29;;;;;;;6.53;2.28;;;10.40;99.90;;;;;;4186357;28;20128;-69
2023/10/15 00:55:30;;;;;;;4.75;2.13;;;10.40;99.90;;;;;;4184545;28;20033;-69
2023/10/15 00:57:41;;;;;;;6.07;2.25;;;10.40;99.90;;;;;;4187653;28;20045;-69
2023/10/15 00:59:48;;;;;;;7.72;1.70;;;10.30;99.90;;;;;;4180656;28;20040;-69
2023/10/15 01:01:54;;;;;;;5.80;1.85;;;10.40;99.90;;;;;;4180088;28;20040;-69
2023/10/15 01:03:59;;;;;;;4.43;1.98;;;10.30;99.90;;;;;;4169117;28;20068;-69
2023/10/15 01:06:04;;;;;;;5.43;2.20;;;10.30;99.90;;;;;;4186001;28;20036;-70
2023/10/15 01:08:05;;;;;;;3.22;1.65;;;10.30;99.90;;;;;;4188380;28;20036;-69
2023/10/15 01:10:08;;;;;;;7.15;1.88;;;10.30;99.90;;;;;;4165131;28;20045;-72
2023/10/15 01:14:32;;;;;;;3.63;1.80;;;10.20;99.90;;;;;;4182743;28;19983;-69
2023/10/15 01:16:36;;;;;;;5.90;2.20;;;10.30;99.90;;;;;;4177319;28;20131;-69
2023/10/15 01:18:36;;;;;;;;;;;10.30;99.90;;;;;;4179046;28;20033;-69
2023/10/15 01:20:42;;;;;;;8.98;2.40;;;10.30;99.90;;;;;;4165068;28;20408;-69
2023/10/15 01:22:43;;;;;;;5.43;2.45;;;10.30;99.90;;;;;;4176466;28;20508;-69
2023/10/15 01:24:49;;;;;;;5.68;2.20;;;10.30;99.90;;;;;;4179251;28;20033;-69
2023/10/15 01:29:15;;;;;;;17.65;3.67;;;10.30;99.90;;;;;;4182569;28;20028;-70
2023/10/15 01:31:15;;;;;;;6.93;2.97;;;10.30;99.90;;;;;;4185033;28;20025;-69
2023/10/15 01:33:16;;;;;;;5.68;3.03;;;10.30;99.90;;;;;;4179292;28;20180;-69
2023/10/15 01:35:19;;;;;;;6.18;2.95;;;10.30;99.90;;;;;;4183754;28;20033;-69
2023/10/15 01:39:32;;;;;;;11.02;3.25;;;10.40;99.90;;;;;;4176681;28;20481;-69
2023/10/15 01:41:33;;;;;;;6.65;3.03;;;10.40;99.90;;;;;;4184775;28;20495;-69
2023/10/15 01:43:35;;;;;;;8.68;3.03;;;10.40;99.90;;;;;;4182485;28;20123;-69
2023/10/15 01:45:38;;;;;;;4.97;2.63;;;10.40;99.90;;;;;;4173737;28;20056;-70
2023/10/15 01:49:51;;;;;;;6.03;2.67;;;10.50;99.90;;;;;;4185397;28;20029;-70
2023/10/15 01:51:53;;;;;;;5.65;3.10;;;10.60;99.90;;;;;;4165017;28;20040;-69
2023/10/15 01:53:56;;;;;;;7.07;2.80;;;10.60;99.90;;;;;;4187514;28;20025;-76
2023/10/15 01:55:59;;;;;;;5.85;2.88;;;10.60;99.90;;;;;;4187540;28;20391;-76
2023/10/15 01:58:10;;;;;;;6.38;2.70;;;10.70;99.90;;;;;;4185208;28;20087;-77
2023/10/15 02:00:32;;;;;;;6.85;2.70;;;10.70;99.90;;;;;;4174724;28;20021;-76
2023/10/15 02:02:33;;;;;;;6.50;2.83;;;10.70;99.90;;;;;;4156282;28;20044;-76
2023/10/15 02:04:42;;;;;;;6.47;2.80;;;10.80;99.90;;;;;;4184200;28;20037;-76
2023/10/15 02:06:45;;;;;;;5.78;2.60;;;10.80;99.90;;;;;;4180835;28;20017;-77
2023/10/15 02:08:46;;;;;;;4.78;2.50;;;10.80;99.90;;;;;;4178345;28;20053;-74
2023/10/15 02:10:47;;;;;;;8.75;2.65;;;10.80;99.90;;;;;;4175060;28;20075;-76
2023/10/15 02:12:59;;;;;;;7.63;3.22;;;10.90;99.90;;;;;;4175967;28;20037;-76
2023/10/15 02:15:14;;;;;;;7.70;2.80;;;10.90;99.90;;;;;;4176631;28;20425;-73
2023/10/15 02:17:18;;;;;;;5.75;2.83;;;10.90;99.90;;;;;;4178037;28;20024;-77
2023/10/15 02:19:40;;;;;;;5.13;2.40;;;10.90;99.90;;;;;;4185656;28;20393;-76
2023/10/15 02:21:49;;;;;;;5.60;2.88;;;11.00;99.90;;;;;;4175585;28;20463;-76
2023/10/15 02:23:51;;;;;;;8.15;2.95;;;11.00;99.90;;;;;;4180907;28;20025;-76
2023/10/15 02:25:58;;;;;;;7.90;3.38;;;11.00;99.90;;;;;;4181751;28;20037;-76
2023/10/15 02:27:58;;;;;;;6.68;2.72;;;11.00;99.90;;;;;;4184115;28;20033;-76
2023/10/15 02:29:59;;;;;;;9.20;3.10;;;11.00;99.90;;;;;;4185118;28;20060;-76
2023/10/15 02:32:20;;;;;;;9.15;3.13;;;11.00;99.90;;;;;;4182735;28;20039;-75
2023/10/15 02:34:27;;;;;;;13.20;4.05;;;11.00;99.90;;;;;;4184836;28;20024;-76
2023/10/15 02:36:29;;;;;;;8.07;3.42;;;11.10;99.90;;;;;;4177803;28;20037;-77
2023/10/15 02:38:37;;;;;;;7.13;2.92;;;11.10;99.90;;;;;;4180524;28;20041;-74
2023/10/15 02:41:03;;;;;;;11.23;3.72;;;11.00;99.90;;;;;;4179564;28;21574;-76
2023/10/15 02:42:59;;;;;;;8.57;3.65;;;11.00;99.90;;;;;;4177507;28;20033;-75
2023/10/15 02:45:01;;;;;;;9.98;3.45;;;11.00;99.90;;;;;;4166949;28;20413;-75
2023/10/15 02:47:10;;;;;;;6.00;3.20;;;11.00;99.90;;;;;;4159464;28;20509;-75
2023/10/15 02:49:15;;;;;;;6.88;2.95;;;11.00;99.90;;;;;;4182262;28;20485;-75
2023/10/15 02:51:23;;;;;;;6.88;3.10;;;11.10;99.90;;;;;;4178215;28;20091;-74
2023/10/15 02:53:24;;;;;;;7.30;2.65;;;11.00;99.90;;;;;;4175655;28;20581;-75
2023/10/15 02:55:27;;;;;;;6.30;2.70;;;11.00;99.90;;;;;;4175105;28;20037;-76
2023/10/15 02:57:29;;;;;;;8.25;3.22;;;11.00;99.90;;;;;;4156135;28;20029;-75
2023/10/15 02:59:31;;;;;;;7.22;3.20;;;10.90;99.90;;;;;;4178171;28;20516;-74
2023/10/15 03:01:32;;;;;;;11.10;4.00;;;10.90;99.90;;;;;;4164886;28;20036;-74
2023/10/15 03:03:34;;;;;;;10.02;3.70;;;10.90;99.90;;;;;;4179457;28;20037;-68
2023/10/15 03:05:38;;;;;;;;;;;10.90;99.90;;;;;;4155828;28;20625;-68
2023/10/15 03:07:43;;;;;;;6.30;3.17;;;10.70;99.90;;;;;;4182618;28;19916;-68
2023/10/15 03:09:44;;;;;;;8.40;3.83;;;10.70;99.90;;;;;;4189217;28;20040;-69
2023/10/15 03:11:51;;;;;;;10.97;3.67;;;10.60;99.90;;;;;;4181708;28;20041;-68
2023/10/15 03:13:55;;;;;;;6.00;2.60;;;10.50;99.90;;;;;;4163403;28;20113;-68
2023/10/15 03:15:57;;;;;;;8.18;3.10;;;10.40;99.90;;;;;;4163153;28;20040;-68
2023/10/15 03:17:58;;;;;;;3.42;1.77;;;10.20;99.90;;;;;;4180131;28;20115;-69
2023/10/15 03:20:24;;;;;;;5.72;2.00;;;10.10;99.90;;;;;;4180917;28;20060;-68
2023/10/15 03:22:28;;;;;;;3.55;1.42;;;10.10;99.90;;;;;;4163899;28;20081;-68
2023/10/15 03:24:34;;;;;;;3.47;1.20;;;10.00;99.90;;;;;;4181951;28;20038;-67
2023/10/15 03:26:35;;;;;;;2.78;1.08;;;10.00;99.90;;;;;;4192366;28;20036;-68
2023/10/15 03:28:44;;;;;;;3.17;0.80;;;10.00;99.90;;;;;;4185246;28;20108;-68
2023/10/15 03:30:44;;;;;;;1.88;1.00;;;10.10;99.90;;;;;;4157654;28;20025;-68
2023/10/15 03:32:45;;;;;;;2.17;1.10;;;10.10;99.90;;;;;;4186351;28;20136;-68
2023/10/15 03:34:59;;;;;;;2.92;1.10;;;10.10;99.90;;;;;;4188005;28;20029;-67
2023/10/15 03:37:00;;;;;;;9.18;1.55;;;10.10;99.90;;;;;;4186476;28;20068;-67
2023/10/15 03:39:10;;;;;;;2.85;1.30;;;10.20;99.90;;;;;;4187293;28;20480;-68
2023/10/15 03:41:21;;;;;;;1.35;0.98;;;10.20;99.90;;;;;;4165095;28;20518;-67
2023/10/15 03:43:21;;;;;;;4.20;1.20;;;10.20;99.90;;;;;;4179144;28;20388;-67
2023/10/15 03:45:26;;;;;;;3.85;1.40;;;10.20;99.90;;;;;;4158357;28;20169;-67
2023/10/15 03:47:27;;;;;;;5.15;1.85;;;10.30;99.90;;;;;;4178407;28;20511;-67
2023/10/15 03:49:27;;;;;;;4.10;1.80;;;10.30;99.90;;;;;;4182601;28;20029;-67
2023/10/15 03:51:28;;;;;;;4.45;1.70;;;10.30;99.90;;;;;;4183288;28;20052;-67
2023/10/15 03:53:29;;;;;;;5.88;2.08;;;10.30;99.90;;;;;;4164234;28;20053;-67
2023/10/15 03:55:30;;;;;;;3.03;1.67;;;10.40;99.90;;;;;;4169871;28;20037;-67
2023/10/15 03:57:34;;;;;;;4.32;1.85;;;10.40;99.90;;;;;;4167509;28;20048;-67
2023/10/15 03:59:53;;;;;;;5.75;1.58;;;10.50;99.90;;;;;;4167114;28;20032;-67
2023/10/15 04:01:56;;;;;;;5.18;1.70;;;10.50;99.90;;;;;;4164020;28;20120;-68
2023/10/15 04:04:01;;;;;;;3.63;1.92;;;10.50;99.90;;;;;;4163161;28;20477;-68
2023/10/15 04:06:05;;;;;;;5.10;1.83;;;10.30;99.90;;;;;;4136932;28;20406;-68
2023/10/15 04:08:18;;;;;;;5.07;2.10;;;10.30;99.90;;;;;;4140898;28;20084;-68
2023/10/15 04:10:23;;;;;;;4.72;2.13;;;10.20;99.90;;;;;;4134347;28;20049;-68
2023/10/15 04:12:27;;;;;;;4.25;1.60;;;10.20;99.90;;;;;;4145718;28;20100;-70
2023/10/15 04:14:28;;;;;;;7.30;2.08;;;10.20;99.90;;;;;;4138956;28;20178;-70
2023/10/15 04:16:29;;;;;;;3.28;1.45;;;10.10;99.90;;;;;;4161162;28;20029;-70
2023/10/15 04:18:29;;;;;;;3.75;1.70;;;10.10;99.90;;;;;;4139804;28;20046;-71
2023/10/15 04:20:35;;;;;;;5.60;1.60;;;10.10;99.90;;;;;;4137405;28;20041;-70
2023/10/15 04:22:36;;;;;;;3.20;1.27;;;10.00;99.90;;;;;;4135318;28;20045;-70
2023/10/15 04:24:37;;;;;;;3.78;1.23;;;10.00;99.90;;;;;;4139185;28;20038;-70
2023/10/15 04:26:48;;;;;;;4.35;1.77;;;10.00;99.90;;;;;;4132146;28;20035;-70
2023/10/15 04:28:53;;;;;;;3.22;1.50;;;9.90;99.90;;;;;;4136324;28;20046;-70
2023/10/15 04:30:54;;;;;;;5.15;1.30;;;9.90;99.90;;;;;;4140254;28;20058;-69
2023/10/15 04:32:56;;;;;;;2.95;1.38;;;9.90;99.90;;;;;;4141464;28;20056;-69
2023/10/15 04:35:08;;;;;;;;;;;9.80;99.90;;;;;;4139457;28;20038;-69
2023/10/15 04:37:16;;;;;;;3.07;1.53;;;9.80;99.90;;;;;;4162948;28;19915;-69
2023/10/15 04:39:21;;;;;;;5.20;1.38;;;9.70;99.90;;;;;;4164096;28;20021;-69
2023/10/15 04:41:22;;;;;;;2.67;1.10;;;9.70;99.90;;;;;;4161121;28;20030;-69
2023/10/15 04:43:25;;;;;;;3.15;1.50;;;9.60;99.90;;;;;;4167816;28;20576;-69
2023/10/15 04:47:38;;;;;;;2.25;1.15;;;9.50;99.90;;;;;;4168997;28;20041;-69
2023/10/15 04:49:40;;;;;;;2.65;1.10;;;9.60;99.90;;;;;;4163115;28;20033;-69
2023/10/15 04:51:43;;;;;;;4.45;1.00;;;9.50;99.90;;;;;;4169596;28;20045;-69
2023/10/15 04:53:50;;;;;;;2.78;1.10;;;9.50;99.90;;;;;;4180606;28;20041;-68
2023/10/15 04:55:52;;;;;;;2.28;0.95;;;9.50;99.90;;;;;;4181843;28;22151;-68
2023/10/15 04:57:53;;;;;;;1.83;0.80;;;9.50;99.90;;;;;;4178989;28;20095;-68
2023/10/15 04:59:53;;;;;;;3.42;0.85;;;9.50;99.90;;;;;;4189490;28;20044;-69
2023/10/15 05:01:54;;;;;;;1.77;0.90;;;9.60;99.90;;;;;;4181046;28;20039;-68
2023/10/15 05:03:54;;;;;;;3.88;1.25;;;9.60;99.90;;;;;;4183187;28;20036;-68
2023/10/15 05:06:11;;;;;;;2.17;0.90;;;9.60;99.90;;;;;;4164293;28;20033;-68
2023/10/15 05:08:13;;;;;;;2.17;0.88;;;9.60;99.90;;;;;;4183803;28;20033;-68
2023/10/15 05:10:14;;;;;;;3.58;0.63;;;9.60;99.90;;;;;;4151487;28;20068;-68
2023/10/15 05:12:14;;;;;;;1.38;0.70;;;9.70;99.90;;;;;;4181363;28;20021;-68
2023/10/15 05:14:17;;;;;;;1.42;0.60;;;9.60;99.90;;;;;;4160276;28;20128;-68
2023/10/15 05:16:18;;;;;;;0.90;0.50;;;9.60;99.90;;;;;;4182181;28;20108;-68
2023/10/15 05:18:19;;;;;;;2.00;0.77;;;9.70;99.90;;;;;;4163714;28;20057;-68
2023/10/15 05:20:20;;;;;;;2.10;0.90;;;9.70;99.90;;;;;;4071906;28;20050;-68
2023/10/15 05:22:21;;;;;;;2.67;0.73;;;9.70;99.90;;;;;;4116793;28;20493;-74
2023/10/15 05:24:22;;;;;;;2.55;0.70;;;9.70;99.90;;;;;;4180413;28;20037;-74
2023/10/15 05:26:22;;;;;;;1.30;0.55;;;9.80;99.90;;;;;;4159631;28;20041;-73
2023/10/15 05:28:23;;;;;;;1.85;1.00;;;9.80;99.90;;;;;;4183434;28;20040;-73
2023/10/15 05:30:23;;;;;;;0.80;0.43;;;9.80;99.90;;;;;;4177183;28;20029;-74
2023/10/15 05:32:24;;;;;;;1.25;0.60;;;9.80;99.90;;;;;;4173595;28;20396;-74
2023/10/15 05:34:25;;;;;;;1.00;0.75;;;9.80;99.90;;;;;;4177225;28;20182;-73
2023/10/15 05:36:25;;;;;;;0.80;0.50;;;9.90;99.90;;;;;;4181660;28;20032;-74
2023/10/15 05:38:27;;;;;;;1.45;0.70;;;9.90;99.90;;;;;;4178611;28;20477;-74
2023/10/15 05:40:29;;;;;;;1.45;0.65;;;9.90;99.90;;;;;;4178281;28;20057;-75
2023/10/15 05:42:30;;;;;;;2.72;0.60;;;9.90;99.90;;;;;;4183770;28;20036;-74
2023/10/15 05:44:31;;;;;;;2.33;0.98;;;9.90;99.90;;;;;;4165387;28;20037;-74
2023/10/15 05:46:32;;;;;;;2.38;1.00;;;9.90;99.90;;;;;;4181149;28;20040;-72
2023/10/15 05:48:32;;;;;;;1.75;0.60;;;9.90;99.90;;;;;;4180173;28;20788;-74
2023/10/15 05:50:33;;;;;;;1.83;0.70;;;9.90;99.90;;;;;;4179571;28;20044;-73
2023/10/15 05:52:33;;;;;;;1.23;0.60;;;9.90;99.90;;;;;;4176935;28;20049;-73
2023/10/15 05:54:34;;;;;;;4.45;0.60;;;9.90;99.90;;;;;;4178209;28;21120;-73
2023/10/15 05:56:34;;;;;;;1.23;0.85;;;9.90;99.90;;;;;;4180955;28;20063;-72
2023/10/15 05:58:36;;;;;;;0.73;0.47;;;9.90;99.90;;;;;;4179960;28;20040;-73
2023/10/15 06:00:39;;;;;;;1.30;0.65;;;10.00;99.90;;;;;;4184853;28;20109;-73
2023/10/15 06:02:40;;;;;;;2.00;0.80;;;10.00;99.90;;;;;;4176884;28;20765;-73
2023/10/15 06:04:43;;;;;;;2.00;0.90;;;10.00;99.90;;;;;;4153837;28;20060;-74
2023/10/15 06:06:44;;;;;;;1.15;0.50;;;10.00;99.90;;;;;;4172200;28;20480;-73
2023/10/15 06:08:44;;;;;;;1.65;0.80;;;10.00;99.90;;;;;;4158006;28;20026;-73
2023/10/15 06:10:45;;;;;;;1.90;0.80;;;10.00;99.90;;;;;;4169806;28;20493;-72
2023/10/15 06:12:45;;;;;;;1.35;0.70;;;9.90;99.90;;;;;;4169771;28;20068;-72
2023/10/15 06:14:46;;;;;;;2.05;0.85;;;9.90;99.90;;;;;;4171648;28;20047;-72
2023/10/15 06:16:52;;;;;;;1.23;0.90;;;10.00;99.90;;;;;;4154867;28;20092;-73
2023/10/15 06:18:53;;;;;;;1.88;0.80;;;9.90;99.90;;;;;;4155110;28;20037;-73
2023/10/15 06:20:54;;;;;;;1.23;0.70;;;10.00;99.90;;;;;;4169423;28;20116;-71
2023/10/15 06:22:55;;;;;;;1.80;0.77;;;10.00;99.90;;;;;;4172079;28;20032;-72
2023/10/15 06:24:56;;;;;;;1.30;0.65;;;9.90;99.90;;;;;;4154701;28;20105;-72
2023/10/15 06:26:57;;;;;;;1.48;0.70;;;10.00;99.90;;;;;;4173894;28;20051;-72
2023/10/15 06:29:00;;;;;;;0.80;0.63;;;10.00;99.90;;;;;;4173760;28;20116;-71
2023/10/15 06:31:01;;;;;;;1.95;0.77;;;10.00;99.90;;;;;;4171471;28;20025;-72
2023/10/15 06:33:02;;;;;;;1.27;0.60;;;10.00;99.90;;;;;;4171072;28;20379;-69
2023/10/15 06:35:03;;;;;;;1.30;0.50;;;9.90;99.90;;;;;;4156225;28;20040;-69
2023/10/15 06:37:03;;;;;;;0.93;0.50;;;9.90;99.90;;;;;;4176534;28;20033;-69
2023/10/15 06:39:04;;;;;;;0.85;0.45;;;10.00;99.90;;;;;;4178872;28;20024;-69
2023/10/15 06:41:08;;;;;;;1.15;0.60;;;10.00;99.90;;;;;;4156522;28;20037;-68
2023/10/15 06:43:10;;;;;;;1.90;0.95;;;10.00;99.90;;;;;;4172526;28;20033;-68
2023/10/15 06:45:11;;;;;;;1.00;0.63;;;10.00;99.90;;;;;;4185524;28;20138;-69
2023/10/15 06:47:11;;;;;;;0.45;0.30;;;10.00;99.90;;;;;;4175592;28;20072;-68
2023/10/15 06:49:12;;;;;;;1.83;0.45;;;10.00;99.90;;;;;;4180817;28;20404;-68
2023/10/15 06:51:13;;;;;;;2.63;1.00;;;10.10;99.90;;;;;;4170047;28;20047;-68
2023/10/15 06:53:13;;;;;;;1.52;0.63;;;10.10;99.90;;;;;;4180552;28;20383;-68
2023/10/15 06:55:19;;;;;;;1.17;0.68;;;10.10;99.90;;;;;;4157188;28;20037;-68
2023/10/15 06:57:20;;;;;;;1.48;0.60;;;10.20;99.90;;;;;;4183019;28;20035;-69
2023/10/15 06:59:21;;;;;;;1.17;0.68;;;10.20;99.90;;;;;;4176861;28;20076;-68
2023/10/15 07:01:21;;;;;;;1.85;0.85;;;10.50;99.90;;;;;;4178944;28;20048;-68
2023/10/15 07:03:23;;;;;;;2.40;0.63;;;10.50;99.90;;;;;;4157608;28;20041;-68
2023/10/15 07:05:25;;;;;;;1.60;0.80;;;10.50;99.90;;;;;;4159795;28;20030;-68
2023/10/15 07:07:26;;;;;;;0.93;0.73;;;10.50;99.90;;;;;;4181552;28;20029;-68
2023/10/15 07:09:27;;;;;;;1.80;1.10;;;10.50;99.90;;;;;;4180304;28;20116;-68
2023/10/15 07:11:27;;;;;;;2.13;0.60;;;10.40;99.90;;;;;;4182479;28;20090;-68
2023/10/15 07:13:28;;;;;;;1.17;0.70;;;10.40;99.90;;;;;;4177922;28;20405;-68
2023/10/15 07:15:29;;;;;;;1.92;1.05;;;10.40;99.90;;;;;;4175956;28;20037;-68
2023/10/15 07:17:29;;;;;;;2.58;1.05;;;10.30;99.90;;;;;;4179750;28;20025;-68
2023/10/15 07:19:30;;;;;;;1.55;0.70;;;10.30;99.90;;;;;;4176886;28;20519;-68
2023/10/15 07:21:32;;;;;;;1.45;0.77;;;10.30;99.90;;;;;;4176496;28;20131;-68
2023/10/15 07:23:32;;;;;;;1.67;0.80;;;10.30;99.90;;;;;;4184858;28;20387;-68
2023/10/15 07:25:33;;;;;;;1.33;0.80;;;10.30;99.90;;;;;;4184776;28;20037;-69
2023/10/15 07:27:34;;;;;;;1.65;0.80;;;10.20;99.90;;;;;;4179618;28;20481;-68
2023/10/15 07:29:35;;;;;;;4.05;1.17;;;10.20;99.90;;;;;;4179152;28;20044;-68
2023/10/15 07:31:38;;;;;;;1.70;0.80;;;10.20;99.90;;;;;;4167810;28;20060;-68
2023/10/15 07:34:00;;;;;;;2.17;0.75;;;10.20;99.90;;;;;;4122824;28;20458;-68
2023/10/15 07:36:19;;;;;;;2.85;0.80;;;10.30;99.90;;;;;;4147558;28;20030;-68
2023/10/15 07:38:19;;;;;;;3.23;1.20;;;10.40;99.90;;;;;;4162786;28;20495;-68
2023/10/15 07:40:22;;;;;;;2.50;1.00;;;10.30;99.90;;;;;;4148754;28;20033;-68
2023/10/15 07:42:23;;;;;;;2.25;0.65;;;10.30;99.90;;;;;;4167323;28;20025;-68
2023/10/15 07:44:23;;;;;;;1.55;0.90;;;10.30;99.90;;;;;;4171541;28;20103;-68
2023/10/15 07:46:24;;;;;;;1.75;0.85;;;10.30;99.90;;;;;;4185620;28;20028;-68
2023/10/15 07:48:25;;;;;;;2.45;0.95;;;10.20;99.90;;;;;;4183710;28;20041;-68
2023/10/15 07:50:26;;;;;;;2.83;1.15;;;10.20;99.90;;;;;;4179754;28;20037;-68
2023/10/15 07:52:27;;;;;;;1.65;0.70;;;10.20;99.90;;;;;;4180178;28;20407;-68
2023/10/15 07:54:28;;;;;;;2.22;0.82;;;10.10;99.90;;;;;;4161146;28;20061;-68
2023/10/15 07:56:31;;;;;;;2.00;0.97;;;10.20;99.90;;;;;;4180596;28;20059;-68
2023/10/15 07:58:31;;;;;;;2.65;0.93;;;10.20;99.90;;;;;;4181754;28;20048;-68
2023/10/15 08:00:33;;;;;;;3.80;0.90;;;10.30;99.90;;;;;;4181360;28;20040;-68
2023/10/15 08:02:35;;;;;;;2.83;0.93;;;10.30;99.90;;;;;;4183965;28;20033;-68
2023/10/15 08:04:36;;;;;;;2.70;0.93;;;10.20;99.90;;;;;;4179350;28;20036;-68
2023/10/15 08:06:37;;;;;;;3.00;1.00;;;10.20;99.90;;;;;;4147134;28;20045;-68
2023/10/15 08:08:38;;;;;;;1.50;0.80;;;10.20;99.90;;;;;;4168665;28;20037;-68
2023/10/15 08:10:39;;;;;;;0.85;0.45;;;10.30;99.90;;;;;;4144018;28;20521;-68
2023/10/15 08:12:40;;;;;;;1.40;0.60;;;10.30;99.90;;;;;;4168969;28;20033;-68
2023/10/15 08:14:41;;;;;;;6.93;1.30;;;10.30;99.90;;;;;;4171929;28;20153;-67
2023/10/15 08:16:42;;;;;;;1.73;0.93;;;10.30;99.90;;;;;;4151416;28;20659;-68
2023/10/15 08:18:44;;;;;;;1.08;0.77;;;10.30;99.90;;;;;;4173776;28;20171;-68
2023/10/15 08:20:45;;;;;;;3.05;1.10;;;10.40;99.90;;;;;;4161054;28;20037;-68
2023/10/15 08:22:45;;;;;;;4.43;1.15;;;10.30;99.90;;;;;;4169808;28;20540;-68
2023/10/15 08:24:46;;;;;;;4.07;1.20;;;10.30;99.90;;;;;;4170952;28;20050;-68
2023/10/15 08:26:47;;;;;;;1.92;1.08;;;10.30;99.90;;;;;;4167049;28;20533;-68
2023/10/15 08:28:48;;;;;;;2.42;1.05;;;10.40;99.90;;;;;;4178081;28;20028;-68
2023/10/15 08:30:54;;;;;;;2.88;1.10;;;10.40;99.90;;;;;;4176993;28;20033;-69
2023/10/15 08:32:54;;;;;;;4.28;1.38;;;10.50;99.90;;;;;;4166282;28;20068;-68
2023/10/15 08:34:55;;;;;;;3.47;1.13;;;10.30;99.90;;;;;;4169826;28;20033;-68
2023/10/15 08:36:56;;;;;;;1.80;0.90;;;10.40;99.90;;;;;;4169233;28;20037;-68
2023/10/15 08:38:56;;;;;;;2.67;0.93;;;10.40;99.90;;;;;;4172686;28;20041;-68
2023/10/15 08:40:58;;;;;;;2.30;0.90;;;10.50;99.90;;;;;;4168198;28;20559;-68
2023/10/15 08:43:13;;;;;;;4.80;1.33;;;10.50;99.90;;;;;;4170577;28;20032;-68
2023/10/15 08:45:16;;;;;;;4.85;1.70;;;10.50;99.90;;;;;;4172080;28;20114;-68
2023/10/15 08:47:17;;;;;;;7.03;1.45;;;10.60;99.90;;;;;;4174868;28;20032;-68
2023/10/15 08:49:19;;;;;;;1.55;0.77;;;10.60;99.90;;;;;;4176879;28;20033;-68
2023/10/15 08:51:23;;;;;;;4.23;0.90;;;10.60;99.90;;;;;;4183701;28;20060;-68
2023/10/15 08:53:28;;;;;;;3.03;0.80;;;10.70;99.90;;;;;;4182851;28;20528;-70
2023/10/15 08:55:29;;;;;;;2.63;0.88;;;10.70;99.90;;;;;;4168946;28;20353;-69
2023/10/15 08:57:30;;;;;;;2.53;1.05;;;10.70;99.90;;;;;;4173351;28;20489;-69
2023/10/15 08:59:32;;;;;;;3.83;1.05;;;10.80;99.90;;;;;;4169730;28;20037;-69
2023/10/15 09:01:34;;;;;;;2.80;1.23;;;10.80;99.90;;;;;;4164963;28;20033;-70
2023/10/15 09:03:38;;;;;;;2.40;1.05;;;10.80;99.90;;;;;;4171168;28;20041;-70
2023/10/15 09:05:40;;;;;;;3.40;1.20;;;10.70;99.90;;;;;;4168754;28;20037;-69
2023/10/15 09:07:41;;;;;;;4.38;1.25;;;10.70;99.90;;;;;;4166903;28;20037;-69
2023/10/15 09:09:42;;;;;;;2.08;0.80;;;10.80;99.90;;;;;;4168466;28;20489;-69
2023/10/15 09:11:42;;;;;;;1.85;0.88;;;10.80;99.90;;;;;;4171931;28;20095;-69
2023/10/15 09:13:50;;;;;;;2.70;1.13;;;10.80;99.90;;;;;;4173135;28;20057;-69
2023/10/15 09:15:55;;;;;;;3.70;0.95;;;10.80;99.90;;;;;;4169055;28;20045;-70
2023/10/15 09:17:56;;;;;;;7.32;1.30;;;10.90;99.90;;;;;;4148658;28;20034;-70
2023/10/15 09:20:00;;;;;;;4.05;1.00;;;10.90;99.90;;;;;;4169792;28;20025;-69
2023/10/15 09:22:01;;;;;;;3.78;1.50;;;10.90;99.90;;;;;;4170762;28;20029;-69
2023/10/15 09:24:02;;;;;;;2.55;0.88;;;10.90;99.90;;;;;;4170128;28;20047;-69
2023/10/15 09:26:07;;;;;;;3.38;1.17;;;10.80;99.90;;;;;;4170383;28;20435;-70
2023/10/15 09:28:08;;;;;;;3.33;1.17;;;10.90;99.90;;;;;;4174723;28;20082;-69
2023/10/15 09:30:18;;;;;;;4.28;1.30;;;10.90;99.90;;;;;;4168958;28;20040;-70
2023/10/15 09:32:22;;;;;;;1.90;1.00;;;10.90;99.90;;;;;;4171850;28;20096;-69
2023/10/15 09:34:26;;;;;;;5.70;1.60;;;11.00;99.90;;;;;;4165962;28;20124;-70
2023/10/15 09:36:27;;;;;;;2.67;1.10;;;11.00;99.90;;;;;;4146975;28;20044;-70
2023/10/15 09:38:28;;;;;;;5.35;1.50;;;11.00;99.90;;;;;;4168411;28;20104;-70
2023/10/15 09:40:31;;;;;;;2.38;1.45;;;11.00;99.90;;;;;;4171205;28;20045;-70
2023/10/15 09:42:33;;;;;;;3.22;1.17;;;11.10;99.90;;;;;;4172294;28;20047;-70
2023/10/15 09:44:35;;;;;;;5.43;1.73;;;11.10;99.90;;;;;;4165514;28;20041;-70
2023/10/15 09:46:35;;;;;;;3.65;1.52;;;11.20;99.90;;;;;;4171175;28;20047;-70
2023/10/15 09:48:37;;;;;;;4.68;1.77;;;11.20;99.90;;;;;;4153111;28;20537;-70
2023/10/15 09:50:38;;;;;;;7.38;2.28;;;11.40;99.90;;;;;;4149995;28;20076;-70
2023/10/15 09:52:39;;;;;;;4.82;1.65;;;11.40;99.90;;;;;;4124671;28;20044;-70
2023/10/15 09:54:42;;;;;;;2.80;1.40;;;11.40;99.90;;;;;;4134388;28;20715;-69
2023/10/15 09:56:48;;;;;;;3.72;1.27;;;11.40;99.90;;;;;;4132567;28;20034;-69
2023/10/15 09:58:48;;;;;;;3.33;1.83;;;11.40;99.90;;;;;;4135399;28;20026;-69
2023/10/15 10:03:10;;;;;;;4.43;1.80;;;11.40;99.90;;;;;;4135842;28;20032;-69
2023/10/15 10:05:31;;;;;;;6.63;2.42;;;11.40;99.90;;;;;;4136528;28;20041;-70
2023/10/15 10:07:49;;;;;;;8.85;2.75;;;11.40;99.90;;;;;;4136088;28;20499;-70
2023/10/15 10:09:56;;;;;;;8.00;3.47;;;11.40;99.90;;;;;;4133294;28;20038;-69
2023/10/15 10:11:59;;;;;;;6.32;2.38;;;11.40;99.90;;;;;;4131700;28;20038;-71
2023/10/15 10:14:23;;;;;;;3.20;1.70;;;11.40;99.90;;;;;;4135666;28;20034;-67
2023/10/15 10:16:26;;;;;;;2.70;1.05;;;11.40;99.90;;;;;;4129085;28;20049;-67
2023/10/15 10:18:33;;;;;;;3.10;1.25;;;11.40;99.90;;;;;;4130172;28;20033;-70
2023/10/15 10:20:37;;;;;;;2.13;1.17;;;11.40;99.90;;;;;;4130794;28;20038;-68
2023/10/15 10:22:39;;;;;;;3.47;1.63;;;11.40;99.90;;;;;;4133726;28;20521;-72
2023/10/15 10:24:42;;;;;;;2.47;1.23;;;11.40;99.90;;;;;;4131043;28;20526;-72
2023/10/15 10:26:52;;;;;;;2.63;1.10;;;11.50;99.90;;;;;;4130724;28;20092;-72
2023/10/15 10:28:56;;;;;;;4.30;1.27;;;11.50;99.90;;;;;;4132222;28;20025;-72
2023/10/15 10:31:00;;;;;;;1.88;0.95;;;11.60;99.90;;;;;;4117427;28;20026;-72
2023/10/15 10:33:03;;;;;;;2.55;1.10;;;11.60;99.90;;;;;;4126755;28;20077;-71
2023/10/15 10:35:23;;;;;;;2.28;0.95;;;11.70;99.90;;;;;;4132956;28;20490;-74
2023/10/15 10:37:24;;;;;;;3.00;0.70;;;11.80;99.90;;;;;;4134762;28;20517;-72
2023/10/15 10:39:42;;;;;;;3.38;0.90;;;11.90;99.90;;;;;;4136132;28;20026;-72
2023/10/15 10:41:45;;;;;;;2.53;0.93;;;12.00;99.90;;;;;;4132498;28;20048;-73
2023/10/15 10:43:46;;;;;;;2.13;0.77;;;12.20;99.90;;;;;;4137452;28;20402;-74
2023/10/15 10:45:55;;;;;;;2.38;0.55;;;12.20;99.90;;;;;;4134090;28;20041;-74
2023/10/15 10:47:55;;;;;;;1.40;0.70;;;12.30;99.90;;;;;;4135048;28;20069;-73
2023/10/15 10:50:03;;;;;;;2.83;1.10;;;12.30;99.90;;;;;;4133787;28;20034;-73
2023/10/15 10:52:14;;;;;;;3.17;1.33;;;12.40;99.90;;;;;;4134079;28;20064;-74
2023/10/15 10:54:16;;;;;;;4.22;1.23;;;12.40;99.90;;;;;;4149854;28;20145;-73
2023/10/15 10:56:17;;;;;;;5.15;1.13;;;12.40;99.90;;;;;;4151278;28;20057;-73
2023/10/15 10:58:24;;;;;;;2.83;0.80;;;12.40;99.90;;;;;;4152436;28;20034;-73